createdAt,value
2022-11-15T00:03:05.743Z,41.93
2022-11-15T00:08:30.799Z,38.77
2022-11-15T00:13:51.584Z,38.00
2022-11-15T00:19:12.556Z,36.40
2022-11-15T00:24:33.423Z,39.17
2022-11-15T00:29:54.629Z,41.10
2022-11-15T00:35:15.257Z,39.70
2022-11-15T00:40:36.240Z,37.33
2022-11-15T00:45:57.186Z,37.73
2022-11-15T00:51:18.282Z,40.13
2022-11-15T00:56:39.093Z,44.20
2022-11-15T01:02:00.104Z,40.00
2022-11-15T01:07:21.201Z,39.73
2022-11-15T01:12:42.048Z,38.20
2022-11-15T01:18:03.067Z,37.37
2022-11-15T01:23:23.939Z,36.00
2022-11-15T01:28:44.932Z,36.30
2022-11-15T01:34:05.884Z,33.83
2022-11-15T01:39:27.715Z,33.67
2022-11-15T01:44:52.939Z,34.57
2022-11-15T01:50:17.729Z,35.27
2022-11-15T01:55:38.956Z,35.40
2022-11-15T02:00:59.921Z,36.07
2022-11-15T02:06:23.023Z,36.37
2022-11-15T02:11:45.091Z,34.77
2022-11-15T02:17:46.696Z,30.97
2022-11-15T02:23:56.371Z,32.43
2022-11-15T02:29:49.483Z,32.80
2022-11-15T02:35:17.232Z,33.70
2022-11-15T02:40:53.266Z,29.97
2022-11-15T02:46:18.655Z,33.73
2022-11-15T02:51:40.726Z,31.23
2022-11-15T02:57:08.180Z,32.27
2022-11-15T03:02:44.096Z,30.20
2022-11-15T03:08:41.117Z,33.67
2022-11-15T03:14:42.012Z,31.67
2022-11-15T03:20:06.904Z,32.20
2022-11-15T03:25:30.259Z,31.87
2022-11-15T03:30:52.831Z,32.33
2022-11-15T03:36:13.417Z,34.60
2022-11-15T03:41:46.820Z,31.80
2022-11-15T03:47:29.994Z,31.70
2022-11-15T03:52:51.600Z,31.77
2022-11-15T03:58:12.601Z,34.10
2022-11-15T04:03:33.624Z,32.93
2022-11-15T04:08:54.790Z,33.50
2022-11-15T04:14:15.639Z,30.93
2022-11-15T04:19:54.791Z,33.23
2022-11-15T04:25:20.610Z,36.07
2022-11-15T04:30:43.770Z,32.50
2022-11-15T04:36:23.156Z,34.27
2022-11-15T04:41:44.055Z,32.03
2022-11-15T04:47:05.035Z,31.57
2022-11-15T04:52:25.891Z,34.07
2022-11-15T04:57:46.676Z,30.80
2022-11-15T05:03:26.138Z,33.50
2022-11-15T05:08:47.263Z,33.13
2022-11-15T05:14:08.259Z,34.27
2022-11-15T05:19:29.004Z,35.87
2022-11-15T05:24:49.811Z,32.83
2022-11-15T05:30:11.192Z,32.20
2022-11-15T05:35:36.635Z,31.00
2022-11-15T05:40:57.682Z,31.63
2022-11-15T05:46:19.664Z,31.73
2022-11-15T05:51:41.467Z,32.40
2022-11-15T05:57:02.438Z,34.70
2022-11-15T06:02:23.562Z,30.67
2022-11-15T06:07:45.252Z,37.10
2022-11-15T06:13:06.389Z,36.40
2022-11-15T06:18:27.553Z,30.17
2022-11-15T06:23:48.495Z,33.27
2022-11-15T06:29:09.308Z,31.57
2022-11-15T06:34:30.235Z,33.63
2022-11-15T06:39:51.161Z,33.50
2022-11-15T06:45:12.047Z,31.23
2022-11-15T06:50:33.219Z,31.97
2022-11-15T06:55:55.708Z,31.70
2022-11-15T07:01:17.019Z,32.20
2022-11-15T07:06:37.937Z,32.53
2022-11-15T07:12:02.018Z,32.50
2022-11-15T07:17:25.712Z,33.43
2022-11-15T07:22:46.731Z,37.10
2022-11-15T07:28:07.802Z,34.47
2022-11-15T07:33:28.918Z,37.27
2022-11-15T07:38:50.039Z,36.37
2022-11-15T07:44:11.988Z,40.13
2022-11-15T07:49:33.135Z,47.00
2022-11-15T07:54:54.492Z,39.03
2022-11-15T08:00:16.937Z,33.90
2022-11-15T08:05:39.658Z,35.77
2022-11-15T08:11:00.589Z,34.43
2022-11-15T08:16:21.130Z,39.27
2022-11-15T08:21:42.028Z,51.13
2022-11-15T08:27:03.087Z,35.40
2022-11-15T08:32:24.046Z,35.00
2022-11-15T08:37:47.610Z,31.73
2022-11-15T08:43:08.662Z,40.43
2022-11-15T08:48:30.378Z,42.93
2022-11-15T08:53:51.622Z,36.40
2022-11-15T08:59:12.808Z,35.07
2022-11-15T09:04:33.514Z,34.70
2022-11-15T09:09:54.545Z,35.37
2022-11-15T09:15:16.535Z,42.87
2022-11-15T09:20:37.447Z,44.37
2022-11-15T09:26:03.764Z,37.47
2022-11-15T09:31:25.533Z,42.00
2022-11-15T09:36:46.304Z,36.97
2022-11-15T09:42:45.559Z,37.20
2022-11-15T09:48:37.152Z,35.83
2022-11-15T09:54:37.901Z,38.77
2022-11-15T09:59:41.441Z,40.37
2022-11-15T10:04:44.061Z,38.83
2022-11-15T10:09:56.278Z,41.33
2022-11-15T10:15:05.246Z,41.17
2022-11-15T10:20:27.663Z,45.87
2022-11-15T10:25:32.375Z,39.03
2022-11-15T10:30:41.203Z,39.67
2022-11-15T10:35:43.724Z,43.17
2022-11-15T10:40:46.190Z,41.53
2022-11-15T10:45:49.750Z,39.10
2022-11-15T10:50:54.017Z,39.83
2022-11-15T10:56:01.975Z,44.30
2022-11-15T11:01:46.269Z,45.90
2022-11-15T11:06:54.451Z,50.57
2022-11-15T11:11:56.956Z,48.47
2022-11-15T11:17:26.731Z,62.90
2022-11-15T11:22:56.090Z,45.53
2022-11-15T11:28:21.873Z,46.57
2022-11-15T11:34:03.874Z,44.87
2022-11-15T11:39:18.379Z,48.70
2022-11-15T11:44:29.950Z,57.47
2022-11-15T11:49:41.088Z,54.30
2022-11-15T11:55:01.718Z,50.67
2022-11-15T12:00:17.330Z,48.73
2022-11-15T12:05:30.004Z,85.53
2022-11-15T12:10:35.584Z,50.30
2022-11-15T12:15:46.528Z,51.63
2022-11-15T12:21:08.718Z,49.83
2022-11-15T12:26:17.896Z,47.33
2022-11-15T12:31:45.014Z,45.33
2022-11-15T12:36:49.020Z,44.87
2022-11-15T12:42:00.224Z,47.53
2022-11-15T12:47:23.387Z,44.93
2022-11-15T12:52:25.815Z,44.90
2022-11-15T12:57:31.595Z,51.30
2022-11-15T13:02:39.523Z,47.23
2022-11-15T13:07:41.841Z,78.43
2022-11-15T13:12:47.057Z,43.93
2022-11-15T13:17:53.210Z,39.33
2022-11-15T13:23:12.734Z,43.23
2022-11-15T13:28:15.009Z,47.63
2022-11-15T13:33:23.995Z,50.33
2022-11-15T13:38:28.531Z,47.97
2022-11-15T13:43:35.962Z,52.33
2022-11-15T13:48:39.022Z,52.30
2022-11-15T13:53:47.531Z,49.07
2022-11-15T13:58:50.142Z,49.30
2022-11-15T14:03:56.739Z,51.67
2022-11-15T14:09:05.492Z,49.70
2022-11-15T14:14:12.977Z,52.90
2022-11-15T14:19:21.347Z,52.57
2022-11-15T14:24:30.768Z,68.00
2022-11-15T14:29:33.070Z,64.03
2022-11-15T14:34:35.360Z,59.47
2022-11-15T14:39:37.698Z,57.17
2022-11-15T14:44:44.775Z,85.10
2022-11-15T14:49:48.683Z,56.13
2022-11-15T14:54:51.486Z,95.10
2022-11-15T14:59:53.897Z,95.20
2022-11-15T15:04:56.375Z,79.17
2022-11-15T15:10:24.554Z,75.93
2022-11-15T15:15:27.589Z,71.17
2022-11-15T15:20:30.521Z,52.27
2022-11-15T15:25:35.905Z,84.97
2022-11-15T15:30:38.295Z,71.37
2022-11-15T15:35:40.739Z,77.80
2022-11-15T15:40:43.129Z,84.67
2022-11-15T15:45:46.137Z,63.73
2022-11-15T15:50:50.190Z,79.90
2022-11-15T15:55:52.518Z,53.40
2022-11-15T16:00:54.890Z,67.20
2022-11-15T16:05:57.728Z,55.97
2022-11-15T16:11:00.165Z,70.13
2022-11-15T16:16:02.560Z,59.73
2022-11-15T16:21:04.920Z,51.10
2022-11-15T16:26:23.316Z,70.97
2022-11-15T16:31:25.651Z,57.63
2022-11-15T16:36:31.243Z,55.53
2022-11-15T16:41:33.925Z,58.57
2022-11-15T16:46:36.302Z,64.47
2022-11-15T16:51:39.512Z,51.70
2022-11-15T16:56:42.243Z,52.43
2022-11-15T17:01:50.690Z,47.57
2022-11-15T17:06:53.587Z,57.87
2022-11-15T17:11:55.944Z,59.43
2022-11-15T17:16:58.300Z,62.60
2022-11-15T17:22:00.848Z,57.00
2022-11-15T17:27:03.244Z,66.37
2022-11-15T17:32:05.713Z,61.23
2022-11-15T17:37:08.052Z,115.83
2022-11-15T17:42:10.404Z,65.87
2022-11-15T17:47:12.785Z,47.63
2022-11-15T17:52:15.205Z,48.73
2022-11-15T17:57:17.531Z,53.00
2022-11-15T18:02:19.880Z,61.47
2022-11-15T18:07:22.824Z,72.40
2022-11-15T18:12:25.170Z,60.27
2022-11-15T18:17:28.062Z,60.10
2022-11-15T18:22:30.397Z,71.33
2022-11-15T18:27:33.241Z,74.40
2022-11-15T18:32:35.582Z,67.87
2022-11-15T18:37:37.881Z,69.00
2022-11-15T18:42:40.220Z,96.27
2022-11-15T18:47:42.562Z,76.93
2022-11-15T18:52:44.863Z,76.67
2022-11-15T18:57:47.264Z,70.60
2022-11-15T19:02:49.560Z,68.77
2022-11-15T19:07:52.285Z,56.47
2022-11-15T19:12:55.210Z,57.43
2022-11-15T19:17:57.540Z,52.20
2022-11-15T19:22:59.900Z,51.63
2022-11-15T19:28:02.240Z,50.73
2022-11-15T19:33:04.897Z,60.43
2022-11-15T19:38:07.202Z,73.83
2022-11-15T19:43:10.262Z,67.50
2022-11-15T19:48:12.622Z,73.70
2022-11-15T19:53:15.509Z,58.80
2022-11-15T19:58:18.173Z,59.40
2022-11-15T20:03:20.472Z,58.47
2022-11-15T20:08:22.948Z,52.70
2022-11-15T20:13:26.001Z,51.00
2022-11-15T20:18:29.671Z,56.07
2022-11-15T20:23:32.019Z,58.10
2022-11-15T20:28:37.202Z,49.67
2022-11-15T20:33:40.156Z,44.67
2022-11-15T20:38:43.471Z,46.20
2022-11-15T20:43:46.035Z,44.70
2022-11-15T20:48:48.445Z,44.07
2022-11-15T20:53:50.791Z,44.70
2022-11-15T20:58:54.809Z,45.87
2022-11-15T21:03:57.283Z,44.87
2022-11-15T21:09:18.262Z,42.93
2022-11-15T21:14:20.755Z,46.07
2022-11-15T21:19:28.803Z,49.27
2022-11-15T21:24:35.116Z,47.03
2022-11-15T21:29:37.929Z,45.67
2022-11-15T21:34:40.247Z,47.37
2022-11-15T21:39:42.675Z,46.80
2022-11-15T21:44:45.077Z,44.33
2022-11-15T21:49:47.459Z,42.73
2022-11-15T21:54:49.807Z,41.10
2022-11-15T22:00:10.625Z,40.93
2022-11-15T22:05:56.210Z,44.17
2022-11-15T22:10:59.391Z,44.87
2022-11-15T22:16:02.269Z,42.80
2022-11-15T22:21:09.345Z,41.47
2022-11-15T22:26:17.341Z,41.03
2022-11-15T22:31:22.178Z,41.90
2022-11-15T22:36:29.777Z,46.63
2022-11-15T22:41:38.608Z,41.87
2022-11-15T22:46:41.302Z,41.77
2022-11-15T22:51:43.919Z,42.93
2022-11-15T22:56:46.575Z,42.23
2022-11-15T23:01:51.090Z,42.73
2022-11-15T23:06:53.786Z,41.90
2022-11-15T23:12:15.327Z,40.40
2022-11-15T23:17:18.017Z,36.73
2022-11-15T23:22:38.997Z,37.23
2022-11-15T23:27:41.679Z,34.33
2022-11-15T23:33:02.670Z,37.23
2022-11-15T23:38:05.280Z,35.67
2022-11-15T23:43:07.975Z,31.13
2022-11-15T23:48:10.695Z,32.47
2022-11-15T23:53:13.288Z,29.57
2022-11-15T23:58:15.955Z,29.67
